createdAt,value
2023-04-20T00:00:02.193Z,126.8
2023-04-20T00:15:02.168Z,124.66
2023-04-20T00:30:02.237Z,123.48
2023-04-20T00:45:01.783Z,123.81
2023-04-20T01:00:02.187Z,124.21
2023-04-20T01:15:01.820Z,124.9
2023-04-20T01:30:02.222Z,123.77
2023-04-20T01:45:01.460Z,124.1
2023-04-20T02:00:02.274Z,124.57
2023-04-20T02:15:01.872Z,124.66
2023-04-20T02:30:02.232Z,125.79
2023-04-20T02:45:01.574Z,125.55
2023-04-20T03:00:02.274Z,124.53
2023-04-20T03:15:01.638Z,123.89
2023-04-20T03:30:02.411Z,123.93
2023-04-20T03:45:01.367Z,123.68
2023-04-20T04:00:02.416Z,123.28
2023-04-20T04:15:01.472Z,122.75
2023-04-20T04:30:02.442Z,123
2023-04-20T04:45:02.176Z,123.2
2023-04-20T05:00:02.476Z,123.2
2023-04-20T05:15:02.161Z,123.16
2023-04-20T05:30:12.925Z,123.44
2023-04-20T05:45:01.712Z,122.31
2023-04-20T06:00:02.492Z,120.69
2023-04-20T06:15:06.784Z,119.48
2023-04-20T06:30:02.714Z,117.86
2023-04-20T06:45:02.194Z,116.12
2023-04-20T07:00:01.680Z,114.25
2023-04-20T07:15:01.841Z,113.57
2023-04-20T07:30:02.747Z,112.51
2023-04-20T07:45:01.826Z,116.8
2023-04-20T08:00:02.853Z,116.64
2023-04-20T08:15:01.988Z,113.32
2023-04-20T08:30:03.444Z,106.32
2023-04-20T08:45:02.529Z,103.21
2023-04-20T09:00:02.249Z,103.12
2023-04-20T09:15:03.066Z,106.48
2023-04-20T09:30:01.889Z,107.5
2023-04-20T09:45:01.575Z,107.17
2023-04-20T10:00:01.914Z,107.17
2023-04-20T10:15:02.353Z,107.17
2023-04-20T10:30:01.363Z,107.17
2023-04-20T10:45:01.720Z,107.17
2023-04-20T11:00:02.110Z,107.17
2023-04-20T11:15:02.110Z,107.17
2023-04-20T11:30:02.263Z,75.6
2023-04-20T11:45:02.753Z,75.6
2023-04-20T12:00:01.994Z,75.6
2023-04-20T12:15:01.680Z,75.6
2023-04-20T12:30:02.162Z,75.6
2023-04-20T12:45:02.697Z,75.6
2023-04-20T13:00:01.366Z,75.6
2023-04-20T13:15:02.122Z,75.6
2023-04-20T13:30:02.121Z,75.6
2023-04-20T13:45:02.645Z,75.6
2023-04-20T14:00:03.142Z,75.6
2023-04-20T14:15:02.231Z,75.6
2023-04-20T14:30:02.062Z,75.6
2023-04-20T14:45:02.552Z,75.6
2023-04-20T15:00:01.274Z,75.6
2023-04-20T15:15:02.060Z,75.6
2023-04-20T15:30:02.723Z,75.6
2023-04-20T15:45:03.129Z,75.6
2023-04-20T16:00:01.449Z,105.88
2023-04-20T16:15:01.745Z,109.64
2023-04-20T16:30:02.942Z,110.33
2023-04-20T16:45:02.004Z,111.5
2023-04-20T17:00:02.408Z,111.5
2023-04-20T17:15:01.276Z,111.5
2023-04-20T17:30:01.674Z,111.5
2023-04-20T17:45:02.178Z,116.97
2023-04-20T18:00:01.565Z,118.14
2023-04-20T18:15:01.908Z,119.15
2023-04-20T18:30:01.466Z,120.45
2023-04-20T18:45:02.139Z,121.34
2023-04-20T19:00:07.010Z,121.9
2023-04-20T19:15:02.650Z,122.96
2023-04-20T19:30:01.719Z,123.56
2023-04-20T19:45:01.649Z,124.57
2023-04-20T20:00:02.326Z,125.6
2023-04-20T20:15:01.917Z,125.46
2023-04-20T20:30:01.344Z,125.55
2023-04-20T20:45:02.264Z,126.19
2023-04-20T21:00:01.948Z,126.6
2023-04-20T21:15:02.282Z,125.55
2023-04-20T21:30:02.243Z,124.33
2023-04-20T21:45:02.515Z,123.44
2023-04-20T22:00:01.917Z,123.44
2023-04-20T22:15:01.449Z,123.93
2023-04-20T22:30:01.870Z,123.28
2023-04-20T22:45:02.674Z,123.28
2023-04-20T23:00:01.741Z,123.2
2023-04-20T23:15:01.742Z,122.79
2023-04-20T23:30:02.143Z,122.67
2023-04-20T23:45:01.430Z,124.9
